Time;durP1;ratioP1;P1;durP2;ratioP2;P2;SDS_P1;SDS_P2;PMS_P1;PMS_P2;Temp;Humidity;BMP_temperature;BMP_pressure;BME280_temperature;BME280_humidity;BME280_pressure;Samples;Min_cycle;Max_cycle;Signal;HPM_P1;HPM_P2
2022/01/10 00:00:31;;;;;;;12.40;3.43;;;26.80;99.90;;;;;;4993676;28;20187;-73
2022/01/10 00:03:00;;;;;;;14.40;3.40;;;26.90;99.90;;;;;;4992952;28;20182;-70
2022/01/10 00:05:28;;;;;;;15.43;3.70;;;26.90;99.90;;;;;;4993830;28;20171;-71
2022/01/10 00:07:56;;;;;;;17.20;3.40;;;27.10;99.90;;;;;;4993489;28;20625;-72
2022/01/10 00:10:23;;;;;;;16.60;3.30;;;27.30;99.90;;;;;;4993697;28;20171;-73
2022/01/10 00:12:51;;;;;;;15.07;3.50;;;27.70;99.90;;;;;;4993477;28;20640;-72
2022/01/10 00:15:19;;;;;;;12.53;3.13;;;27.70;99.90;;;;;;4991994;28;20289;-71
2022/01/10 00:17:47;;;;;;;16.93;3.53;;;27.80;99.90;;;;;;4993658;28;20179;-72
2022/01/10 00:20:18;;;;;;;17.97;3.50;;;27.70;99.90;;;;;;4993111;28;20187;-71
2022/01/10 00:22:48;;;;;;;12.87;2.70;;;27.90;99.90;;;;;;4993641;28;20187;-72
2022/01/10 00:25:21;;;;;;;11.23;2.67;;;27.70;99.90;;;;;;4991530;28;20655;-73
2022/01/10 00:27:52;;;;;;;17.40;4.10;;;27.60;99.90;;;;;;4990345;28;20179;-72
2022/01/10 00:30:21;;;;;;;15.23;2.87;;;27.60;99.90;;;;;;4993321;28;20186;-70
2022/01/10 00:32:50;;;;;;;11.90;3.07;;;27.80;99.90;;;;;;4993167;28;20186;-73
2022/01/10 00:35:17;;;;;;;11.53;2.50;;;28.10;99.90;;;;;;4993220;28;20237;-68
2022/01/10 00:37:46;;;;;;;12.07;3.57;;;28.80;99.90;;;;;;4992867;28;20230;-70
2022/01/10 00:40:15;;;;;;;13.37;3.00;;;29.00;99.90;;;;;;4993138;28;20210;-72
2022/01/10 00:42:52;;;;;;;20.20;3.63;;;28.80;99.90;;;;;;4975583;28;20651;-67
2022/01/10 00:45:23;;;;;;;13.93;3.27;;;28.30;99.90;;;;;;4975669;28;20712;-71
2022/01/10 00:47:51;;;;;;;16.70;3.07;;;28.20;99.90;;;;;;4992328;28;20182;-69
2022/01/10 00:50:20;;;;;;;17.63;3.60;;;28.00;99.90;;;;;;4993091;28;20179;-71
2022/01/10 00:52:47;;;;;;;21.20;4.43;;;27.90;99.90;;;;;;4992807;28;20262;-71
2022/01/10 00:55:15;;;;;;;17.57;3.10;;;27.60;99.90;;;;;;4992712;28;20210;-69
2022/01/10 00:57:43;;;;;;;11.57;3.20;;;27.40;99.90;;;;;;4992805;28;20178;-70
2022/01/10 01:00:13;;;;;;;11.80;2.93;;;27.40;99.90;;;;;;4992598;28;20187;-68
2022/01/10 01:02:41;;;;;;;16.37;3.07;;;27.50;99.90;;;;;;4992767;28;20290;-70
2022/01/10 01:05:13;;;;;;;14.37;3.73;;;27.50;99.90;;;;;;4992227;28;20175;-69
2022/01/10 01:07:41;;;;;;;15.37;3.20;;;27.40;99.90;;;;;;4992478;28;20222;-69
2022/01/10 01:10:57;;;;;;;16.37;4.03;;;27.20;99.90;;;;;;4992644;28;20258;-68
2022/01/10 01:14:07;;;;;;;12.53;3.70;;;27.20;99.90;;;;;;4992813;28;20668;-69
2022/01/10 01:16:13;;;;;;;18.37;3.43;;;27.20;99.90;;;;;;4987652;28;20695;-68
2022/01/10 01:26:29;;;;;;;15.27;3.77;;;27.90;99.90;;;;;;4992428;28;20202;-70
2022/01/10 01:28:57;;;;;;;14.90;3.90;;;28.30;99.90;;;;;;4992284;28;20187;-70
2022/01/10 01:31:25;;;;;;;16.03;3.50;;;28.90;99.90;;;;;;4992400;28;20648;-72
2022/01/10 01:33:53;;;;;;;12.63;2.90;;;29.70;99.90;;;;;;4992397;28;20178;-70
2022/01/10 01:36:23;;;;;;;13.63;2.77;;;29.90;99.90;;;;;;4992141;28;20262;-69
2022/01/10 01:38:52;;;;;;;14.73;3.43;;;30.10;99.90;;;;;;4991922;28;20222;-70
2022/01/10 01:41:35;;;;;;;17.27;3.70;;;30.40;99.90;;;;;;4992281;28;20182;-70
2022/01/10 01:44:04;;;;;;;11.30;2.53;;;30.80;99.90;;;;;;4992210;28;20237;-69
2022/01/10 01:46:35;;;;;;;13.20;3.30;;;31.10;99.90;;;;;;4991503;28;20233;-69
2022/01/10 01:49:04;;;;;;;18.00;3.33;;;31.40;99.90;;;;;;4991985;28;20194;-71
2022/01/10 01:51:32;;;;;;;18.30;3.23;;;31.60;99.90;;;;;;4992210;28;20174;-72
2022/01/10 01:54:00;;;;;;;15.98;3.30;;;31.40;99.90;;;;;;4991968;28;20574;-70
2022/01/10 01:56:28;;;;;;;15.38;3.65;;;31.40;99.90;;;;;;4992264;28;20182;-71
2022/01/10 01:58:56;;;;;;;13.47;3.47;;;31.60;99.90;;;;;;4991914;28;20213;-71
2022/01/10 02:01:25;;;;;;;15.20;3.30;;;31.40;99.90;;;;;;4993935;28;20632;-69
2022/01/10 02:03:54;;;;;;;17.27;3.53;;;31.00;99.90;;;;;;4995478;28;20186;-71
2022/01/10 02:06:21;;;;;;;14.17;3.30;;;30.50;99.90;;;;;;4995297;28;20190;-72
2022/01/10 02:08:49;;;;;;;11.87;2.70;;;30.00;99.90;;;;;;4995891;28;20191;-73
2022/01/10 02:11:17;;;;;;;15.27;3.30;;;30.10;99.90;;;;;;4995996;28;20193;-70
2022/01/10 02:13:45;;;;;;;12.43;3.17;;;30.20;99.90;;;;;;4995677;28;20256;-69
2022/01/10 02:16:19;;;;;;;12.93;3.17;;;30.30;99.90;;;;;;4995787;28;20186;-72
2022/01/10 02:18:49;;;;;;;9.47;2.30;;;30.30;99.90;;;;;;4995797;28;20186;-71
2022/01/10 02:21:16;;;;;;;12.83;3.33;;;30.30;99.90;;;;;;4995687;28;20236;-72
2022/01/10 02:23:44;;;;;;;14.47;2.83;;;30.30;99.90;;;;;;4995807;28;20759;-70
2022/01/10 02:26:14;;;;;;;14.17;2.93;;;30.50;99.90;;;;;;4994822;28;20339;-69
2022/01/10 02:28:42;;;;;;;11.73;2.50;;;31.30;99.90;;;;;;4995608;28;20189;-70
2022/01/10 02:31:10;;;;;;;9.77;2.70;;;31.20;99.90;;;;;;4995604;28;20183;-69
2022/01/10 02:33:38;;;;;;;11.80;2.83;;;31.60;99.90;;;;;;4995704;28;20187;-71
2022/01/10 02:36:18;;;;;;;12.95;2.90;;;31.70;99.90;;;;;;4995071;28;20237;-70
2022/01/10 02:38:51;;;;;;;12.90;2.97;;;31.40;99.90;;;;;;4995421;28;20197;-70
2022/01/10 02:41:22;;;;;;;15.63;2.90;;;30.70;99.90;;;;;;4995370;28;20229;-71
2022/01/10 02:43:51;;;;;;;12.50;2.72;;;30.50;99.90;;;;;;4995415;28;20229;-71
2022/01/10 02:46:19;;;;;;;10.97;2.83;;;30.50;99.90;;;;;;4977490;28;20186;-70
2022/01/10 02:48:47;;;;;;;14.07;3.37;;;30.30;99.90;;;;;;4995435;28;20178;-70
2022/01/10 02:51:15;;;;;;;11.07;2.90;;;29.90;99.90;;;;;;4995232;28;20185;-70
2022/01/10 02:53:43;;;;;;;10.50;3.03;;;29.70;99.90;;;;;;4995216;28;20191;-70
2022/01/10 02:56:11;;;;;;;14.43;3.23;;;29.70;99.90;;;;;;4994815;28;20296;-70
2022/01/10 02:58:38;;;;;;;22.60;4.20;;;29.80;99.90;;;;;;4995253;28;20179;-71
2022/01/10 03:01:07;;;;;;;19.17;3.40;;;29.80;99.90;;;;;;4977805;28;20563;-69
2022/01/10 03:03:34;;;;;;;11.40;2.80;;;29.80;99.90;;;;;;4994957;28;20186;-69
2022/01/10 03:06:03;;;;;;;14.20;3.57;;;30.20;99.90;;;;;;4994398;28;20652;-69
2022/01/10 03:08:31;;;;;;;16.27;3.00;;;30.60;99.90;;;;;;4995013;28;20175;-70
2022/01/10 03:10:59;;;;;;;12.63;2.80;;;31.00;99.90;;;;;;4994853;28;20189;-69
2022/01/10 03:13:27;;;;;;;21.07;3.90;;;31.20;99.90;;;;;;4994324;28;20187;-71
2022/01/10 03:15:55;;;;;;;11.87;3.37;;;30.80;99.90;;;;;;4994521;28;20222;-68
2022/01/10 03:18:22;;;;;;;13.03;2.77;;;31.00;99.90;;;;;;4994781;28;20225;-69
2022/01/10 03:20:50;;;;;;;10.73;3.07;;;30.80;99.90;;;;;;4994682;28;20179;-70
2022/01/10 03:23:18;;;;;;;19.67;3.93;;;30.80;99.90;;;;;;4994645;28;20178;-69
2022/01/10 03:25:46;;;;;;;13.57;3.00;;;30.50;99.90;;;;;;4994298;28;20214;-68
2022/01/10 03:28:15;;;;;;;9.33;2.17;;;30.50;99.90;;;;;;4994458;28;20175;-68
2022/01/10 03:30:43;;;;;;;9.90;2.80;;;30.90;99.90;;;;;;4994466;28;20178;-69
2022/01/10 03:33:11;;;;;;;13.13;3.43;;;31.10;99.90;;;;;;4994429;28;20245;-70
2022/01/10 03:35:39;;;;;;;12.63;3.27;;;31.30;99.90;;;;;;4993816;28;20224;-70
2022/01/10 03:38:07;;;;;;;11.47;2.77;;;31.30;99.90;;;;;;4993362;28;20190;-69
2022/01/10 03:40:35;;;;;;;11.95;2.83;;;31.40;99.90;;;;;;4994377;28;20667;-68
2022/01/10 03:43:03;;;;;;;12.73;2.97;;;31.40;99.90;;;;;;4994168;28;20178;-71
2022/01/10 03:45:30;;;;;;;11.47;2.27;;;31.80;99.90;;;;;;4994097;28;20187;-69
2022/01/10 03:47:58;;;;;;;9.77;2.03;;;32.10;99.90;;;;;;4993712;28;20206;-69
2022/01/10 03:50:26;;;;;;;10.15;2.42;;;32.00;99.90;;;;;;4994170;28;20601;-71
2022/01/10 03:52:54;;;;;;;12.63;2.67;;;31.60;99.90;;;;;;4993447;28;20174;-70
2022/01/10 03:55:21;;;;;;;10.00;2.55;;;31.40;99.90;;;;;;4993892;28;20253;-69
2022/01/10 03:57:49;;;;;;;16.23;2.83;;;31.10;99.90;;;;;;4993694;28;20262;-70
2022/01/10 04:00:17;;;;;;;12.77;2.70;;;31.00;99.90;;;;;;4993584;28;20190;-69
2022/01/10 04:02:57;;;;;;;13.63;2.93;;;30.70;99.90;;;;;;4993986;28;20214;-70
2022/01/10 04:05:25;;;;;;;10.20;2.60;;;30.50;99.90;;;;;;4993782;28;20612;-70
2022/01/10 04:07:52;;;;;;;10.63;2.90;;;31.10;99.90;;;;;;4993779;28;20241;-70
2022/01/10 04:10:20;;;;;;;13.68;2.35;;;31.50;99.90;;;;;;4993208;28;20269;-68
2022/01/10 04:12:48;;;;;;;14.90;2.90;;;31.90;99.90;;;;;;4976071;28;20202;-70
2022/01/10 04:15:16;;;;;;;13.23;2.65;;;31.60;99.90;;;;;;4993690;28;20249;-69
2022/01/10 04:17:44;;;;;;;12.25;2.30;;;31.40;99.90;;;;;;4993517;28;20194;-69
2022/01/10 04:20:12;;;;;;;10.73;2.47;;;31.10;99.90;;;;;;4993390;28;20213;-69
2022/01/10 04:22:39;;;;;;;12.80;2.87;;;31.10;99.90;;;;;;4993218;28;20519;-69
2022/01/10 04:25:08;;;;;;;11.93;2.00;;;32.00;99.90;;;;;;4993216;28;20196;-69
2022/01/10 04:27:35;;;;;;;13.63;3.05;;;32.40;99.90;;;;;;4993524;28;20551;-70
2022/01/10 04:30:04;;;;;;;17.30;3.23;;;32.00;99.90;;;;;;4993560;28;20609;-70
2022/01/10 04:32:33;;;;;;;9.73;2.93;;;31.00;99.90;;;;;;4993585;28;20174;-69
2022/01/10 04:35:01;;;;;;;11.10;2.73;;;31.40;99.90;;;;;;4993443;28;20241;-71
2022/01/10 04:37:29;;;;;;;11.88;2.72;;;31.90;99.90;;;;;;4975643;28;20229;-70
2022/01/10 04:39:56;;;;;;;10.93;2.67;;;32.40;99.90;;;;;;4992833;28;20257;-70
2022/01/10 04:42:24;;;;;;;12.55;2.63;;;32.60;99.90;;;;;;4993197;28;20256;-70
2022/01/10 04:44:52;;;;;;;14.52;2.72;;;32.80;99.90;;;;;;4974914;28;20648;-70
2022/01/10 04:47:20;;;;;;;12.55;3.05;;;32.80;99.90;;;;;;4992706;28;20178;-70
2022/01/10 04:52:34;;;;;;;8.70;2.30;;;31.70;99.90;;;;;;4993354;28;20285;-70
2022/01/10 04:55:03;;;;;;;16.83;2.80;;;32.10;99.90;;;;;;4975712;28;20229;-71
2022/01/10 04:57:30;;;;;;;9.63;2.37;;;32.40;99.90;;;;;;4992340;28;20237;-69
2022/01/10 04:59:58;;;;;;;13.38;2.08;;;32.50;99.90;;;;;;4993048;28;20229;-69
2022/01/10 05:02:26;;;;;;;10.68;2.53;;;32.80;99.90;;;;;;4992930;28;20186;-71
2022/01/10 05:04:53;;;;;;;13.95;2.65;;;32.80;99.90;;;;;;4992588;28;20205;-70
2022/01/10 05:07:21;;;;;;;10.48;2.20;;;32.30;99.90;;;;;;4991707;28;20280;-70
2022/01/10 05:09:49;;;;;;;10.27;2.20;;;31.60;99.90;;;;;;4988929;28;20628;-70
2022/01/10 05:12:17;;;;;;;11.87;2.90;;;31.60;99.90;;;;;;4992361;28;20194;-68
2022/01/10 05:14:44;;;;;;;8.40;2.17;;;31.20;99.90;;;;;;4992497;28;20302;-67
2022/01/10 05:17:12;;;;;;;12.33;2.63;;;31.00;99.90;;;;;;4993008;28;20182;-70
2022/01/10 05:19:40;;;;;;;7.73;2.60;;;30.80;99.90;;;;;;4992439;28;20182;-71
2022/01/10 05:22:07;;;;;;;9.23;2.03;;;30.10;99.90;;;;;;4992059;28;20209;-70
2022/01/10 05:24:35;;;;;;;8.57;2.10;;;30.30;99.90;;;;;;4992413;28;20277;-70
2022/01/10 05:27:03;;;;;;;5.37;1.70;;;31.10;99.90;;;;;;4992359;28;20190;-69
2022/01/10 05:29:31;;;;;;;14.63;2.63;;;31.30;99.90;;;;;;4992207;28;20198;-68
2022/01/10 05:31:59;;;;;;;9.77;1.90;;;31.80;99.90;;;;;;4992046;28;20198;-71
2022/01/10 05:34:27;;;;;;;12.80;2.30;;;31.90;99.90;;;;;;4991911;28;20233;-70
2022/01/10 05:36:54;;;;;;;10.27;3.03;;;31.90;99.90;;;;;;4970744;28;20597;-69
2022/01/10 05:39:22;;;;;;;12.50;3.13;;;31.90;99.90;;;;;;4973130;28;20780;-70
2022/01/10 05:41:50;;;;;;;10.77;2.17;;;31.60;99.90;;;;;;4972701;28;20270;-68
2022/01/10 05:44:18;;;;;;;9.27;2.03;;;31.30;99.90;;;;;;4972409;28;20183;-71
2022/01/10 05:46:46;;;;;;;8.90;2.03;;;30.90;99.90;;;;;;4972640;28;20184;-69
2022/01/10 05:49:15;;;;;;;13.90;2.67;;;31.70;99.90;;;;;;4972995;28;20207;-68
2022/01/10 05:51:43;;;;;;;10.30;2.27;;;31.60;99.90;;;;;;4972792;28;20277;-69
2022/01/10 05:54:11;;;;;;;9.10;2.30;;;31.30;99.90;;;;;;4972648;28;20180;-69
2022/01/10 05:56:39;;;;;;;11.37;2.70;;;31.30;99.90;;;;;;4972908;28;20187;-69
2022/01/10 05:59:06;;;;;;;10.23;2.03;;;31.20;99.90;;;;;;4972892;28;20182;-69
2022/01/10 06:01:34;;;;;;;8.77;2.30;;;31.10;99.90;;;;;;4972767;28;20187;-70
2022/01/10 06:04:02;;;;;;;8.80;2.43;;;31.60;99.90;;;;;;4972955;28;20179;-69
2022/01/10 06:06:30;;;;;;;10.27;1.83;;;30.90;99.90;;;;;;4972815;28;20179;-71
2022/01/10 06:08:57;;;;;;;6.90;2.30;;;30.40;99.90;;;;;;4972858;28;20179;-69
2022/01/10 06:11:25;;;;;;;12.00;2.30;;;30.40;99.90;;;;;;4972864;28;20179;-71
2022/01/10 06:13:53;;;;;;;13.63;2.53;;;30.20;99.90;;;;;;4972500;28;20187;-72
2022/01/10 06:16:21;;;;;;;12.23;2.23;;;30.10;99.90;;;;;;4971595;28;20183;-71
2022/01/10 06:18:48;;;;;;;9.67;2.10;;;30.50;99.90;;;;;;4972696;28;20180;-71
2022/01/10 06:21:16;;;;;;;12.80;2.50;;;31.00;99.90;;;;;;4973042;28;20541;-72
2022/01/10 06:23:44;;;;;;;10.87;2.47;;;30.70;99.90;;;;;;4972788;28;20588;-71
2022/01/10 06:26:12;;;;;;;13.00;2.87;;;31.00;99.90;;;;;;4972700;28;20233;-72
2022/01/10 06:28:39;;;;;;;12.37;2.47;;;30.90;99.90;;;;;;4970690;28;20722;-71
2022/01/10 06:31:07;;;;;;;13.07;1.70;;;30.90;99.90;;;;;;4971318;28;20180;-70
2022/01/10 06:33:35;;;;;;;10.47;2.47;;;31.00;99.90;;;;;;4971643;28;20187;-71
2022/01/10 06:36:03;;;;;;;12.80;2.63;;;30.60;99.90;;;;;;4977722;28;20249;-72
2022/01/10 06:38:31;;;;;;;11.70;1.93;;;30.30;99.90;;;;;;4991904;28;20202;-72
2022/01/10 06:40:58;;;;;;;8.73;2.30;;;29.90;99.90;;;;;;4991813;28;20539;-69
2022/01/10 06:43:26;;;;;;;11.23;2.37;;;29.70;99.90;;;;;;4991889;28;20191;-71
2022/01/10 06:45:54;;;;;;;11.63;2.10;;;29.80;99.90;;;;;;4991371;28;20546;-71
2022/01/10 06:48:22;;;;;;;11.30;2.20;;;29.90;99.90;;;;;;4995166;28;20244;-72
2022/01/10 06:50:49;;;;;;;9.90;2.63;;;30.00;99.90;;;;;;4995582;28;20621;-72
2022/01/10 06:53:18;;;;;;;13.07;2.40;;;29.80;99.90;;;;;;4995446;28;20209;-72
2022/01/10 06:55:46;;;;;;;13.33;2.73;;;29.40;99.90;;;;;;4995060;28;20661;-71
2022/01/10 06:58:14;;;;;;;8.07;2.13;;;29.10;99.90;;;;;;4995425;28;20175;-72
2022/01/10 07:00:44;;;;;;;11.43;2.93;;;28.90;99.90;;;;;;4995340;28;20182;-71
2022/01/10 07:03:12;;;;;;;13.60;2.50;;;29.10;99.90;;;;;;4995286;28;20174;-72
2022/01/10 07:05:40;;;;;;;11.40;2.17;;;29.00;99.90;;;;;;4995532;28;20206;-70
2022/01/10 07:08:08;;;;;;;13.47;2.57;;;28.80;99.90;;;;;;4978337;28;20194;-70
2022/01/10 07:10:35;;;;;;;11.73;1.93;;;28.80;99.90;;;;;;4995652;28;20644;-71
2022/01/10 07:13:03;;;;;;;14.03;2.77;;;28.80;99.90;;;;;;4995377;28;20679;-71
2022/01/10 07:15:31;;;;;;;11.57;2.03;;;28.40;99.90;;;;;;4977637;28;20210;-70
2022/01/10 07:17:58;;;;;;;11.63;2.00;;;28.50;99.90;;;;;;4994700;28;20179;-70
2022/01/10 07:20:27;;;;;;;12.40;2.43;;;28.20;99.90;;;;;;4994880;28;20190;-71
2022/01/10 07:22:55;;;;;;;12.77;3.17;;;28.10;99.90;;;;;;4994789;28;20644;-70
2022/01/10 07:25:23;;;;;;;11.83;2.70;;;28.00;99.90;;;;;;4994690;28;20190;-71
2022/01/10 07:27:50;;;;;;;11.80;2.17;;;27.80;99.90;;;;;;4994631;28;20237;-71
2022/01/10 07:30:18;;;;;;;15.60;2.60;;;27.70;99.90;;;;;;4994432;28;20183;-70
2022/01/10 07:32:46;;;;;;;11.53;2.73;;;27.60;99.90;;;;;;4994708;28;20378;-71
2022/01/10 07:35:14;;;;;;;12.60;2.40;;;27.60;99.90;;;;;;4976908;28;20264;-70
2022/01/10 07:37:42;;;;;;;13.23;2.33;;;27.50;99.90;;;;;;4961217;28;20236;-69
2022/01/10 07:40:10;;;;;;;11.83;2.83;;;27.40;99.90;;;;;;4994214;28;20338;-71
2022/01/10 07:42:38;;;;;;;16.70;2.40;;;27.40;99.90;;;;;;4994739;28;20175;-70
2022/01/10 07:45:06;;;;;;;12.70;2.53;;;27.30;99.90;;;;;;4994629;28;20182;-72
2022/01/10 07:47:35;;;;;;;11.57;2.70;;;27.20;99.90;;;;;;4994489;28;20262;-71
2022/01/10 07:50:05;;;;;;;15.70;3.43;;;27.40;99.90;;;;;;4994769;28;20253;-71
2022/01/10 07:52:33;;;;;;;15.20;3.47;;;27.40;99.90;;;;;;4994532;28;20205;-68
2022/01/10 07:55:03;;;;;;;11.40;2.87;;;27.40;99.90;;;;;;4994496;28;20209;-71
2022/01/10 07:57:31;;;;;;;9.97;3.87;;;27.30;99.90;;;;;;4994025;28;20230;-70
2022/01/10 07:59:58;;;;;;;15.10;3.13;;;27.30;99.90;;;;;;4993195;28;20186;-71
2022/01/10 08:02:26;;;;;;;17.27;4.13;;;27.20;99.90;;;;;;4994533;28;20175;-71
2022/01/10 08:04:54;;;;;;;12.30;2.90;;;27.10;99.90;;;;;;4994354;28;20190;-72
2022/01/10 08:07:22;;;;;;;10.57;2.37;;;27.10;99.90;;;;;;4977131;28;20639;-72
2022/01/10 08:09:50;;;;;;;14.40;2.60;;;27.00;99.90;;;;;;4976561;28;20186;-72
2022/01/10 08:12:18;;;;;;;14.67;3.20;;;27.00;99.90;;;;;;4994042;28;20262;-71
2022/01/10 08:14:48;;;;;;;12.30;2.33;;;26.90;99.90;;;;;;4993566;28;20214;-70
2022/01/10 08:17:16;;;;;;;12.50;2.67;;;26.80;99.90;;;;;;4994151;28;20190;-71
2022/01/10 08:19:44;;;;;;;11.07;2.80;;;26.60;99.90;;;;;;4994317;28;20591;-71
2022/01/10 08:22:11;;;;;;;13.20;2.73;;;26.60;99.90;;;;;;4993970;28;20220;-71
2022/01/10 08:24:39;;;;;;;11.97;2.53;;;26.60;99.90;;;;;;4993773;28;20178;-71
2022/01/10 08:27:07;;;;;;;9.17;2.50;;;26.60;99.90;;;;;;4993395;28;20190;-70
2022/01/10 08:29:36;;;;;;;14.70;3.03;;;26.50;99.90;;;;;;4993733;28;20178;-71
2022/01/10 08:32:04;;;;;;;15.50;3.47;;;26.50;99.90;;;;;;4993221;28;20269;-69
2022/01/10 08:34:32;;;;;;;14.10;2.60;;;26.40;99.90;;;;;;4993622;28;20203;-69
2022/01/10 08:37:00;;;;;;;11.20;2.67;;;26.30;99.90;;;;;;4993708;28;20237;-69
2022/01/10 08:39:28;;;;;;;20.63;3.73;;;26.40;99.90;;;;;;4959599;28;20322;-68
2022/01/10 08:41:56;;;;;;;10.90;2.37;;;26.30;99.90;;;;;;4993484;28;20185;-69
2022/01/10 08:44:23;;;;;;;21.47;3.07;;;26.20;99.90;;;;;;4993517;28;20248;-69
2022/01/10 08:46:51;;;;;;;14.67;2.97;;;26.20;99.90;;;;;;4992987;28;20190;-68
2022/01/10 08:49:19;;;;;;;20.13;3.10;;;26.10;99.90;;;;;;4993367;28;20730;-68
2022/01/10 08:51:49;;;;;;;11.77;2.83;;;26.00;99.90;;;;;;4993750;28;20640;-68
2022/01/10 08:54:17;;;;;;;15.40;2.97;;;26.00;99.90;;;;;;4994190;28;20186;-68
2022/01/10 08:56:45;;;;;;;19.67;3.07;;;26.00;99.90;;;;;;4994490;28;20267;-68
2022/01/10 08:59:12;;;;;;;10.00;2.30;;;25.80;99.90;;;;;;4994622;28;20177;-68
2022/01/10 09:01:42;;;;;;;10.23;2.40;;;25.80;99.90;;;;;;4994420;28;20248;-68
2022/01/10 09:04:16;;;;;;;14.27;2.93;;;25.80;99.90;;;;;;4994653;28;20660;-68
2022/01/10 09:06:52;;;;;;;17.57;3.27;;;25.70;99.90;;;;;;4994073;28;20711;-69
2022/01/10 09:09:21;;;;;;;11.20;2.53;;;25.70;99.90;;;;;;4993746;28;20656;-69
2022/01/10 09:11:49;;;;;;;12.23;3.07;;;25.70;99.90;;;;;;4975469;28;20178;-69
2022/01/10 09:14:19;;;;;;;19.17;3.47;;;25.60;99.90;;;;;;4974259;28;20198;-70
2022/01/10 09:16:47;;;;;;;10.23;3.20;;;25.60;99.90;;;;;;4983997;28;20225;-70
2022/01/10 09:19:15;;;;;;;13.00;2.70;;;25.60;99.90;;;;;;4970960;28;20203;-70
2022/01/10 09:21:43;;;;;;;13.37;3.07;;;25.50;99.90;;;;;;4992638;28;20175;-70
2022/01/10 09:24:11;;;;;;;12.87;2.77;;;25.50;99.90;;;;;;4992467;28;20648;-69
2022/01/10 09:26:39;;;;;;;17.40;3.17;;;25.40;99.90;;;;;;4992378;28;20190;-69
2022/01/10 09:29:06;;;;;;;16.67;2.77;;;25.20;99.90;;;;;;4992542;28;20553;-69
2022/01/10 09:31:34;;;;;;;14.17;3.53;;;25.20;99.90;;;;;;4975462;28;20213;-69
2022/01/10 09:34:02;;;;;;;16.90;3.50;;;25.20;99.90;;;;;;4992573;28;20186;-70
2022/01/10 09:36:34;;;;;;;15.53;3.40;;;25.10;99.90;;;;;;4992242;28;20284;-69
2022/01/10 09:39:02;;;;;;;12.10;3.00;;;25.00;99.90;;;;;;4992530;28;20202;-69
2022/01/10 09:41:31;;;;;;;10.60;2.70;;;25.00;99.90;;;;;;4992378;28;20210;-69
2022/01/10 09:44:04;;;;;;;11.83;3.17;;;25.00;99.90;;;;;;4974783;28;20190;-69
2022/01/10 09:46:32;;;;;;;24.37;3.60;;;25.00;99.90;;;;;;4992434;28;20197;-69
2022/01/10 09:49:02;;;;;;;12.53;3.63;;;25.00;99.90;;;;;;4992520;28;20175;-69
2022/01/10 09:51:32;;;;;;;14.03;3.03;;;25.00;99.90;;;;;;4975054;28;20248;-70
2022/01/10 09:54:01;;;;;;;18.97;3.50;;;25.00;99.90;;;;;;4992371;28;20202;-69
2022/01/10 09:56:30;;;;;;;16.40;3.17;;;24.90;99.90;;;;;;4974999;28;20206;-69
2022/01/10 09:59:00;;;;;;;17.47;3.73;;;25.00;99.90;;;;;;4992407;28;20182;-69
2022/01/10 10:01:32;;;;;;;22.20;4.00;;;25.00;99.90;;;;;;4992355;28;20183;-69
2022/01/10 10:04:02;;;;;;;15.23;2.77;;;25.00;99.90;;;;;;4992270;28;20185;-69
2022/01/10 10:06:32;;;;;;;19.17;3.00;;;24.90;99.90;;;;;;4992247;28;20244;-69
2022/01/10 10:09:09;;;;;;;17.23;2.90;;;24.80;99.90;;;;;;4992256;28;20635;-69
2022/01/10 10:11:49;;;;;;;19.33;3.33;;;24.80;99.90;;;;;;4991957;28;20202;-69
2022/01/10 10:14:22;;;;;;;19.17;3.40;;;24.80;99.90;;;;;;4992255;28;20249;-70
2022/01/10 10:16:53;;;;;;;19.33;3.53;;;24.70;99.90;;;;;;4992208;28;20636;-69
2022/01/10 10:19:30;;;;;;;21.83;3.53;;;24.60;99.90;;;;;;4974637;28;20292;-69
2022/01/10 10:21:59;;;;;;;20.20;3.97;;;24.70;99.90;;;;;;4993598;28;20718;-69
2022/01/10 10:24:27;;;;;;;18.50;3.20;;;24.70;99.90;;;;;;4995778;28;20174;-70
2022/01/10 10:26:58;;;;;;;16.87;3.70;;;24.60;99.90;;;;;;4995715;28;20190;-70
2022/01/10 10:29:26;;;;;;;16.43;3.70;;;24.60;99.90;;;;;;4995794;28;20190;-69
2022/01/10 10:31:56;;;;;;;20.07;4.17;;;24.60;99.90;;;;;;4995415;28;20593;-69
2022/01/10 10:34:29;;;;;;;20.63;4.33;;;24.60;99.90;;;;;;4995629;28;20564;-70
2022/01/10 10:37:06;;;;;;;14.27;3.60;;;24.50;99.90;;;;;;4995573;28;20715;-69
2022/01/10 10:39:39;;;;;;;15.83;4.00;;;24.40;99.90;;;;;;4995445;28;20186;-70
2022/01/10 10:42:13;;;;;;;16.53;3.53;;;24.40;99.90;;;;;;4994632;28;20186;-69
2022/01/10 10:44:42;;;;;;;17.93;3.80;;;24.40;99.90;;;;;;4983910;28;20239;-69
2022/01/10 10:47:13;;;;;;;17.77;3.83;;;24.30;99.90;;;;;;4995167;28;20644;-69
2022/01/10 10:49:45;;;;;;;14.07;4.40;;;24.30;99.90;;;;;;4995269;28;20229;-69
2022/01/10 10:52:14;;;;;;;19.60;4.50;;;24.30;99.90;;;;;;4995242;28;20178;-69
2022/01/10 10:54:42;;;;;;;27.07;4.70;;;24.20;99.90;;;;;;4995292;28;20214;-69
2022/01/10 10:57:14;;;;;;;16.83;3.57;;;24.20;99.90;;;;;;4995113;28;20204;-69
2022/01/10 10:59:43;;;;;;;25.37;4.83;;;24.20;99.90;;;;;;4995063;28;20248;-69
2022/01/10 11:02:12;;;;;;;24.67;5.27;;;24.10;99.90;;;;;;4994875;28;20226;-69
2022/01/10 11:04:41;;;;;;;17.30;3.97;;;24.10;99.90;;;;;;4995010;28;20186;-69
2022/01/10 11:07:10;;;;;;;18.83;4.23;;;24.10;99.90;;;;;;4994646;28;20674;-69
2022/01/10 11:09:37;;;;;;;20.27;4.43;;;24.10;99.90;;;;;;4995103;28;20178;-69
2022/01/10 11:12:05;;;;;;;22.17;4.40;;;24.10;99.90;;;;;;4994852;28;20175;-69
2022/01/10 11:14:33;;;;;;;18.83;4.43;;;24.00;99.90;;;;;;4994649;28;20235;-70
2022/01/10 11:17:02;;;;;;;17.70;4.30;;;24.00;99.90;;;;;;4995015;28;20274;-70
2022/01/10 11:19:30;;;;;;;15.47;4.00;;;24.00;99.90;;;;;;4994941;28;20260;-69
2022/01/10 11:22:06;;;;;;;23.67;4.60;;;24.00;99.90;;;;;;4994858;28;20174;-69
2022/01/10 11:24:48;;;;;;;17.77;4.37;;;24.00;99.90;;;;;;4994677;28;20549;-70
2022/01/10 11:27:36;;;;;;;19.90;4.40;;;24.00;99.90;;;;;;4994847;28;20170;-70
2022/01/10 11:30:22;;;;;;;21.33;4.10;;;23.90;99.90;;;;;;4977367;28;20222;-70
2022/01/10 11:32:54;;;;;;;22.33;4.87;;;24.00;99.90;;;;;;4992703;28;20546;-70
2022/01/10 11:35:22;;;;;;;28.03;4.50;;;23.90;99.90;;;;;;4975916;28;20288;-69
2022/01/10 11:37:50;;;;;;;19.40;4.80;;;23.90;99.90;;;;;;4994309;28;20202;-71
2022/01/10 11:40:19;;;;;;;16.20;3.80;;;23.90;99.90;;;;;;4994176;28;20247;-71
2022/01/10 11:42:59;;;;;;;22.10;4.53;;;23.90;99.90;;;;;;4994162;28;20186;-69
2022/01/10 11:45:28;;;;;;;16.00;4.27;;;23.80;99.90;;;;;;4994712;28;20187;-70
2022/01/10 11:48:11;;;;;;;27.70;4.43;;;23.80;99.90;;;;;;4994369;28;20269;-70
2022/01/10 11:50:43;;;;;;;22.73;4.80;;;23.80;99.90;;;;;;4994532;28;20594;-70
2022/01/10 11:53:11;;;;;;;18.20;4.13;;;23.70;99.90;;;;;;4976747;28;20546;-70
2022/01/10 11:56:18;;;;;;;15.53;3.67;;;23.70;99.90;;;;;;4976445;28;20231;-69
2022/01/10 11:59:08;;;;;;;22.07;4.37;;;23.70;99.90;;;;;;4994150;28;20189;-69
2022/01/10 12:01:38;;;;;;;16.47;4.60;;;23.60;99.90;;;;;;4993625;28;20182;-69
2022/01/10 12:04:06;;;;;;;20.33;4.70;;;23.60;99.90;;;;;;4993899;28;20237;-69
2022/01/10 12:06:34;;;;;;;19.00;4.60;;;23.50;99.90;;;;;;4993901;28;20189;-70
2022/01/10 12:09:03;;;;;;;21.27;4.77;;;23.50;99.90;;;;;;4993778;28;20189;-70
2022/01/10 12:11:31;;;;;;;12.30;3.50;;;23.50;99.90;;;;;;4993981;28;20232;-69
2022/01/10 12:14:00;;;;;;;27.43;4.53;;;23.50;99.90;;;;;;4993589;28;20183;-69
2022/01/10 12:16:29;;;;;;;21.40;4.43;;;23.40;99.90;;;;;;4993306;28;20230;-70
2022/01/10 12:18:58;;;;;;;22.00;4.30;;;23.50;99.90;;;;;;4993777;28;20181;-69
2022/01/10 12:21:27;;;;;;;16.97;4.20;;;23.40;99.90;;;;;;4993756;28;20182;-69
2022/01/10 12:23:54;;;;;;;16.13;4.27;;;23.40;99.90;;;;;;4993484;28;20190;-70
2022/01/10 12:26:25;;;;;;;12.67;3.37;;;23.40;99.90;;;;;;4993477;28;20562;-69
2022/01/10 12:28:56;;;;;;;15.90;4.00;;;23.50;99.90;;;;;;4993762;28;20176;-69
2022/01/10 12:31:26;;;;;;;17.03;4.00;;;23.50;99.90;;;;;;4993753;28;20603;-69
2022/01/10 12:33:55;;;;;;;22.67;4.57;;;23.50;99.90;;;;;;4993179;28;20209;-69
2022/01/10 12:36:25;;;;;;;16.57;3.60;;;23.50;99.90;;;;;;4992223;28;20233;-70
2022/01/10 12:38:55;;;;;;;24.37;4.97;;;23.50;99.90;;;;;;4975690;28;20196;-69
2022/01/10 12:41:23;;;;;;;21.27;4.17;;;23.50;99.90;;;;;;4993455;28;20560;-69
2022/01/10 12:43:51;;;;;;;20.40;4.40;;;23.50;99.90;;;;;;4992952;28;20264;-70
2022/01/10 12:46:20;;;;;;;25.77;4.73;;;23.50;99.90;;;;;;4975839;28;20737;-70
2022/01/10 12:48:50;;;;;;;15.93;4.47;;;23.40;99.90;;;;;;4977012;28;20197;-70
2022/01/10 12:51:20;;;;;;;26.73;5.13;;;23.40;99.90;;;;;;4994269;28;20736;-70
2022/01/10 12:53:51;;;;;;;18.63;3.80;;;23.30;99.90;;;;;;4994846;28;20198;-70
2022/01/10 12:56:24;;;;;;;18.80;4.00;;;23.30;99.90;;;;;;4995153;28;20235;-69
2022/01/10 12:58:52;;;;;;;22.33;4.23;;;23.30;99.90;;;;;;4977578;28;20186;-70